createdAt,value
2023-04-24T00:04:26.596Z,16.18
2023-04-24T00:09:23.998Z,16.52
2023-04-24T00:14:21.490Z,16.72
2023-04-24T00:19:21.822Z,16.69
2023-04-24T00:24:18.645Z,16.83
2023-04-24T00:29:15.710Z,16.88
2023-04-24T00:34:13.126Z,16.89
2023-04-24T00:39:10.120Z,16.92
2023-04-24T00:44:06.677Z,16.72
2023-04-24T00:49:03.563Z,16.31
2023-04-24T00:54:01.196Z,16.22
2023-04-24T00:58:58.995Z,16.06
2023-04-24T01:03:56.516Z,16.13
2023-04-24T01:08:53.373Z,16.22
2023-04-24T01:13:50.815Z,15.92
2023-04-24T01:18:47.725Z,16.03
2023-04-24T01:23:45.225Z,16.17
2023-04-24T01:28:41.870Z,16.38
2023-04-24T01:33:38.564Z,16.44
2023-04-24T01:38:35.598Z,16.31
2023-04-24T01:43:33.060Z,16.33
2023-04-24T01:48:30.676Z,16.44
2023-04-24T01:53:27.446Z,16.54
2023-04-24T01:58:24.136Z,16.41
2023-04-24T02:03:21.512Z,15.90
2023-04-24T02:08:19.438Z,15.57
2023-04-24T02:13:16.072Z,15.53
2023-04-24T02:18:13.201Z,15.33
2023-04-24T02:23:10.477Z,14.98
2023-04-24T02:28:11.304Z,14.76
2023-04-24T02:33:10.744Z,14.64
2023-04-24T02:38:07.353Z,14.35
2023-04-24T02:43:04.594Z,14.25
2023-04-24T02:48:04.004Z,14.57
2023-04-24T02:53:00.717Z,14.84
2023-04-24T02:57:58.497Z,14.99
2023-04-24T03:02:57.513Z,15.10
2023-04-24T03:07:54.259Z,14.83
2023-04-24T03:12:51.766Z,14.74
2023-04-24T03:17:48.802Z,15.04
2023-04-24T03:22:46.284Z,15.41
2023-04-24T03:27:42.996Z,15.65
2023-04-24T03:32:51.160Z,15.74
2023-04-24T03:37:53.739Z,16.00
2023-04-24T03:43:10.446Z,16.11
2023-04-24T03:48:08.205Z,16.18
2023-04-24T03:53:06.173Z,16.12
2023-04-24T03:58:07.527Z,16.08
2023-04-24T04:03:05.037Z,15.54
2023-04-24T04:08:02.490Z,15.22
2023-04-24T04:13:00.617Z,15.69
2023-04-24T04:17:57.683Z,15.85
2023-04-24T04:22:54.788Z,15.93
2023-04-24T04:28:05.150Z,16.03
2023-04-24T04:33:01.934Z,16.04
2023-04-24T04:37:59.564Z,15.35
2023-04-24T04:43:33.054Z,15.28
2023-04-24T04:48:31.910Z,14.42
2023-04-24T04:53:31.146Z,14.89
2023-04-24T04:58:28.015Z,15.41
2023-04-24T05:03:30.009Z,15.83
2023-04-24T05:08:33.953Z,16.09
2023-04-24T05:13:40.326Z,16.17
2023-04-24T05:18:53.321Z,16.28
2023-04-24T05:23:55.392Z,16.39
2023-04-24T05:29:06.175Z,16.56
2023-04-24T05:34:06.328Z,16.65
2023-04-24T05:39:07.500Z,16.62
2023-04-24T05:44:05.464Z,16.77
2023-04-24T05:49:02.531Z,16.91
2023-04-24T05:54:00.985Z,16.97
2023-04-24T05:58:57.881Z,17.22
2023-04-24T06:03:54.957Z,17.40
2023-04-24T06:08:55.352Z,17.54
2023-04-24T06:13:53.832Z,17.69
2023-04-24T06:19:08.929Z,17.61
2023-04-24T06:24:06.775Z,17.92
2023-04-24T06:29:41.151Z,18.02
2023-04-24T06:35:10.349Z,18.16
2023-04-24T06:40:41.998Z,18.34
2023-04-24T06:52:11.268Z,18.18
2023-04-24T06:56:28.329Z,18.30
2023-04-24T06:57:45.908Z,18.02
2023-04-24T07:03:17.782Z,18.02
2023-04-24T07:08:25.239Z,18.13
2023-04-24T07:13:24.868Z,18.18
2023-04-24T07:18:30.791Z,18.26
2023-04-24T07:23:32.520Z,18.27
2023-04-24T07:28:31.872Z,18.34
2023-04-24T07:33:33.496Z,18.55
2023-04-24T08:23:58.497Z,19.73
2023-04-24T08:36:39.649Z,19.92
2023-04-24T08:47:38.768Z,20.22
2023-04-24T08:52:35.857Z,20.25
2023-04-24T08:57:33.528Z,20.36
2023-04-24T09:02:33.140Z,20.45
2023-04-24T09:07:31.250Z,20.55
2023-04-24T09:12:29.947Z,20.65
2023-04-24T09:17:29.313Z,20.67
2023-04-24T09:22:26.994Z,20.78
2023-04-24T09:27:43.363Z,20.82
2023-04-24T09:32:42.356Z,20.89
2023-04-24T09:37:40.169Z,20.98
2023-04-24T09:42:37.102Z,21.10
2023-04-24T09:47:37.765Z,21.14
2023-04-24T09:52:35.951Z,21.21
2023-04-24T09:57:35.556Z,21.22
2023-04-24T10:02:32.953Z,21.32
2023-04-24T10:07:30.074Z,21.40
2023-04-24T10:12:29.694Z,21.43
2023-04-24T10:17:27.259Z,21.41
2023-04-24T10:22:24.164Z,21.53
2023-04-24T10:27:27.642Z,21.58
2023-04-24T10:32:26.485Z,21.56
2023-04-24T10:37:28.729Z,21.58
2023-04-24T10:42:28.560Z,21.61
2023-04-24T10:47:29.312Z,21.67
2023-04-24T10:58:18.529Z,21.82
2023-04-24T11:03:26.412Z,21.87
2023-04-24T11:08:31.889Z,21.95
2023-04-24T11:13:49.864Z,21.94
2023-04-24T11:18:53.914Z,22.12
2023-04-24T11:23:52.045Z,21.89
2023-04-24T11:28:53.746Z,22.01
2023-04-24T11:34:08.604Z,22.01
2023-04-24T11:39:07.331Z,22.00
2023-04-24T11:44:07.462Z,22.16
2023-04-24T11:49:14.468Z,22.09
2023-04-24T11:54:13.955Z,22.24
2023-04-24T11:59:11.034Z,22.08
2023-04-24T12:04:08.841Z,22.20
2023-04-24T12:09:17.425Z,22.31
2023-04-24T12:14:15.363Z,22.43
2023-04-24T12:19:14.660Z,22.23
2023-04-24T12:24:13.264Z,22.38
2023-04-24T12:29:10.053Z,22.40
2023-04-24T12:34:19.719Z,22.17
2023-04-24T12:39:24.105Z,22.41
2023-04-24T12:44:21.209Z,22.35
2023-04-24T12:49:19.683Z,22.43
2023-04-24T12:54:16.960Z,22.44
2023-04-24T12:59:43.387Z,22.34
2023-04-24T13:04:53.872Z,22.42
2023-04-24T13:09:51.593Z,22.47
2023-04-24T13:14:51.209Z,22.39
2023-04-24T13:19:50.661Z,22.66
2023-04-24T13:24:49.302Z,22.71
2023-04-24T13:29:48.207Z,22.56
2023-04-24T13:34:45.441Z,22.64
2023-04-24T13:39:45.461Z,22.69
2023-04-24T13:44:43.750Z,22.96
2023-04-24T13:49:42.882Z,22.76
2023-04-24T13:54:40.043Z,22.90
2023-04-24T13:59:38.776Z,22.58
2023-04-24T14:04:39.871Z,22.52
2023-04-24T14:09:37.075Z,22.58
2023-04-24T14:14:36.376Z,22.53
2023-04-24T14:19:34.123Z,22.41
2023-04-24T14:24:31.018Z,22.27
2023-04-24T14:29:27.712Z,22.45
2023-04-24T14:34:27.768Z,22.35
2023-04-24T14:39:25.866Z,22.46
2023-04-24T14:44:22.903Z,22.45
2023-04-24T14:49:19.934Z,22.30
2023-04-24T14:54:16.695Z,22.37
2023-04-24T14:59:14.814Z,22.38
2023-04-24T15:04:21.922Z,22.42
2023-04-24T15:09:18.949Z,22.34
2023-04-24T15:14:16.901Z,22.29
2023-04-24T15:19:13.880Z,22.34
2023-04-24T15:24:12.624Z,22.25
2023-04-24T15:29:09.440Z,22.06
2023-04-24T15:34:06.817Z,22.16
2023-04-24T15:39:07.718Z,22.23
2023-04-24T15:44:06.095Z,22.18
2023-04-24T15:49:05.458Z,22.27
2023-04-24T15:54:03.495Z,22.31
2023-04-24T15:59:00.687Z,22.34
2023-04-24T16:03:57.764Z,22.33
2023-04-24T16:08:56.601Z,22.30
2023-04-24T16:13:55.597Z,22.31
2023-04-24T16:18:55.879Z,22.31
2023-04-24T16:23:52.624Z,22.33
2023-04-24T16:28:49.665Z,22.36
2023-04-24T16:33:47.492Z,22.36
2023-04-24T16:38:44.242Z,22.36
2023-04-24T16:43:41.070Z,22.35
2023-04-24T16:48:37.801Z,22.31
2023-04-24T16:53:35.504Z,22.24
2023-04-24T16:58:32.185Z,22.22
2023-04-24T17:03:29.086Z,22.16
2023-04-24T17:08:29.501Z,22.15
2023-04-24T17:13:26.862Z,22.18
2023-04-24T17:18:24.317Z,22.11
2023-04-24T17:23:21.204Z,22.06
2023-04-24T17:28:23.855Z,22.08
2023-04-24T17:39:26.500Z,21.21
2023-04-24T17:44:23.456Z,20.74
2023-04-24T17:49:20.282Z,20.51
2023-04-24T17:54:18.263Z,20.22
2023-04-24T17:59:16.475Z,20.03
2023-04-24T18:04:13.620Z,20.06
2023-04-24T18:09:11.473Z,19.99
2023-04-24T18:14:08.867Z,20.20
2023-04-24T18:19:06.400Z,20.23
2023-04-24T18:24:03.351Z,19.98
2023-04-24T18:29:00.165Z,20.29
2023-04-24T18:33:57.085Z,19.89
2023-04-24T18:38:55.401Z,19.40
2023-04-24T18:43:52.257Z,19.41
2023-04-24T18:48:49.132Z,19.43
2023-04-24T18:53:46.208Z,19.33
2023-04-24T18:58:45.663Z,19.32
2023-04-24T19:03:42.540Z,19.54
2023-04-24T19:08:41.956Z,19.49
2023-04-24T19:13:38.828Z,19.49
2023-04-24T19:18:36.224Z,19.57
2023-04-24T19:23:36.223Z,19.56
2023-04-24T19:28:37.183Z,19.89
2023-04-24T19:33:38.388Z,19.78
2023-04-24T19:38:36.017Z,19.51
2023-04-24T19:43:32.724Z,19.66
2023-04-24T19:48:32.001Z,19.81
2023-04-24T19:53:30.176Z,19.80
2023-04-24T19:58:30.261Z,19.53
2023-04-24T20:03:33.606Z,19.39
2023-04-24T20:08:33.459Z,19.18
2023-04-24T20:13:31.955Z,19.34
2023-04-24T20:18:28.619Z,19.23
2023-04-24T20:23:25.660Z,18.40
2023-04-24T20:28:25.903Z,18.31
2023-04-24T20:33:23.488Z,17.99
2023-04-24T20:38:22.022Z,18.17
2023-04-24T20:43:18.854Z,18.14
2023-04-24T20:48:15.812Z,17.99
2023-04-24T20:53:13.410Z,17.94
2023-04-24T20:58:10.604Z,17.94
2023-04-24T21:03:08.868Z,17.93
2023-04-24T21:08:05.944Z,17.94
2023-04-24T21:13:03.458Z,17.84
2023-04-24T21:18:00.489Z,17.81
2023-04-24T21:22:57.243Z,17.51
2023-04-24T21:27:54.191Z,17.40
2023-04-24T21:32:51.793Z,17.17
2023-04-24T21:37:48.692Z,17.22
2023-04-24T21:42:45.480Z,17.27
2023-04-24T21:47:42.311Z,17.32
2023-04-24T21:52:40.056Z,17.30
2023-04-24T21:57:36.751Z,17.42
2023-04-24T22:02:33.776Z,17.48
2023-04-24T22:07:31.175Z,17.51
2023-04-24T22:12:28.617Z,17.64
2023-04-24T22:17:26.017Z,17.71
2023-04-24T22:22:22.818Z,17.54
2023-04-24T22:27:19.480Z,17.55
2023-04-24T22:32:17.859Z,17.62
2023-04-24T22:37:14.513Z,17.59
2023-04-24T22:42:11.379Z,17.63
2023-04-24T22:47:08.751Z,17.75
2023-04-24T22:52:06.416Z,17.96
2023-04-24T22:57:03.447Z,18.19
2023-04-24T23:02:01.143Z,18.04
2023-04-24T23:06:57.926Z,17.75
2023-04-24T23:11:55.395Z,17.79
2023-04-24T23:16:52.166Z,17.52
2023-04-24T23:21:49.529Z,17.31
2023-04-24T23:26:46.362Z,17.27
2023-04-24T23:31:43.852Z,17.29
2023-04-24T23:36:40.613Z,17.15
2023-04-24T23:41:38.402Z,16.95
2023-04-24T23:46:35.151Z,17.06
2023-04-24T23:51:32.669Z,16.85
2023-04-24T23:56:29.480Z,16.95
